PACM

Details ICAO PACM (SCM)
Name SCAMMON BAY
Region USA (Alaska)
Timezone America/Nome (UTC-8.0)
Plans Departing 0
Arriving 0
Stats Elevation 14 ft / 4 m (AMSL)
Location 61.844540° -165.573750°
Runways 1
Magnetic Variation 9.724° E
Sunrise 2018-05-20 13:57:41 UTC / 2018-05-20 05:57:41 Local
Sunset 2018-05-21 08:02:51 UTC / 2018-05-21 00:02:51 Local
Advertisement - Login to hide

Runways

ID Width Length Bearing (true) Bearing (mag) Surface Threshold Offset Overrun Length
10 75 ft / 23 m 2,991 ft / 912 m 113.46° 103.74° Gravel 0 ft / 0 m 299 ft / 91 m
28 75 ft / 23 m 2,991 ft / 912 m 293.47° 283.75° Gravel 0 ft / 0 m 299 ft / 91 m

Map

Weather


0- 5 10 15 20 25 30 35+ Temperature / ° C

Clouds and Precipitation
Forecast for 2018-05-20 18:00 UTC. Updated 39 minutes ago

Ground ~20,000 ft ~40,000 ft Winds

METAR

PACM 201744Z AUTO 26015KT 5SM BR OVC004 04/03 A2960 RMK AO2

TAF

Not found

Frequencies

Recorded 118.42 MHz ASOS
Unicom 123.00 MHz CTAF/UNICOM
Warning: Do not use this data for real-world aviation or navigation. No guarantee of current accuracy is given.